Noonamah, Australia
Current Conditions -  °F | °C
As of 3:00 AM on Tuesday 23 Dec 2014 (Local Time) from YPDN Reporting Station
Broken Clouds Broken Clouds  
Wind Chill: 82°   Ceiling: 35000
Heat Index: 91°   Visibility: 6mi
Dew Point: 77°   Wind: 6mph
Humidity: 84%   Direction: 210°SSW
Pressure: 29.74"   Gusts: NA
Location:  12.66°S, 131.08°E
Report Text: YPDN 221800Z 21005KT 9999 FEW020 BKN350 28/25 Q1007
Loading
Personal Weather Stations






























Interactive Weather Map New forecast layout! Learn more

10-Day Weather Forecast

Advertisements
Track Severe Weather on mobile